Terminal Aerodrome Forecast
Issued by NWS Pocatello, ID

Home | Current Version | Previous Version | Text Only | Print | Product List | Glossary On
Versions: 1 2 3 4 5 6 7 8 9 10 11 12 13 14 15 16
000
FTUS45 KPIH 250500
TAFBYI
TAF
KBYI 250533Z 2506/2606 26025G35KT 3/4SM -SN BLSN BKN003 OVC015
     FM250900 27020G30KT 1SM -SN BLSN SCT007 OVC013
     FM251600 27015G25KT 3SM -SN SCT015 OVC025
     FM252000 26012G20KT P6SM VCSH SCT025 OVC040
     FM260200 26011KT P6SM OVC040=

USA.gov is the U.S. government's official web portal to all federal, state and local government web resources and services.